Archival Weather

Aeroparque Jorge Newbery

Buenos Aires, Argentina (SABE)

Report from: Thursday, February 22, 2024 5:00 AM -03
Current time: Monday, June 24, 2024 7:51 AM -03

Current weather – Weather history – Daily summaries
Weather forecast

Temperature25.0°C (77.0°F)
Dew point20.0°C (68.0°F)
Winds 10 kts (5.1 m/s, 11.5 mph) North (10°)
Clouds Sky clear
Altimeter29.74 in.Hg (1007 mB)
Relative humidity74 %
Density altitude1,686 ft. (514 m)
Remarks Ceiling and visibility OK
No significant changes expected in the next two hours
Flight conditions Visual Meteorological Conditions
Raw dataSABE 220800Z 01010KT CAVOK 25/20 Q1007 NOSIG
An error has occurred. This application may no longer respond until reloaded. Reload 🗙